createdAt,value
2018-09-11T00:00:53.047Z,19.88
2018-09-11T00:03:21.609Z,19.90
2018-09-11T00:05:50.207Z,19.88
2018-09-11T00:08:18.863Z,19.88
2018-09-11T00:10:47.419Z,19.92
2018-09-11T00:13:15.979Z,19.92
2018-09-11T00:15:44.636Z,19.92
2018-09-11T00:18:13.184Z,19.88
2018-09-11T00:20:41.742Z,19.81
2018-09-11T00:23:10.843Z,19.80
2018-09-11T00:25:39.395Z,19.82
2018-09-11T00:28:08.059Z,19.78
2018-09-11T00:30:36.682Z,19.78
2018-09-11T00:33:05.267Z,19.75
2018-09-11T00:35:33.812Z,19.79
2018-09-11T00:38:02.491Z,19.79
2018-09-11T00:40:31.044Z,19.80
2018-09-11T00:42:59.636Z,19.79
2018-09-11T00:45:28.232Z,19.79
2018-09-11T00:47:56.791Z,19.78
2018-09-11T00:50:25.344Z,19.74
2018-09-11T00:52:54.342Z,19.74
2018-09-11T00:55:22.895Z,19.72
2018-09-11T00:57:51.927Z,19.71
2018-09-11T01:00:20.708Z,19.70
2018-09-11T01:02:49.368Z,19.64
2018-09-11T01:05:17.919Z,19.57
2018-09-11T01:07:47.286Z,19.52
2018-09-11T01:10:15.858Z,19.48
2018-09-11T01:12:44.424Z,19.46
2018-09-11T01:15:13.347Z,19.49
2018-09-11T01:17:41.952Z,19.46
2018-09-11T01:20:10.547Z,19.45
2018-09-11T01:22:39.148Z,19.46
2018-09-11T01:25:07.730Z,19.48
2018-09-11T01:27:36.285Z,19.52
2018-09-11T01:30:05.344Z,19.57
2018-09-11T01:32:34.129Z,19.63
2018-09-11T01:35:02.682Z,19.66
2018-09-11T01:37:31.283Z,19.65
2018-09-11T01:39:59.836Z,19.69
2018-09-11T01:42:28.395Z,19.62
2018-09-11T01:44:57.288Z,19.56
2018-09-11T01:47:25.881Z,19.49
2018-09-11T01:49:54.406Z,19.40
2018-09-11T01:52:23.243Z,19.29
2018-09-11T01:54:51.798Z,19.48
2018-09-11T01:57:20.363Z,19.52
2018-09-11T01:59:49.298Z,19.50
2018-09-11T02:02:17.868Z,19.51
2018-09-11T02:04:46.424Z,19.48
2018-09-11T02:07:15.866Z,19.46
2018-09-11T02:09:44.425Z,19.41
2018-09-11T02:12:13.017Z,19.34
2018-09-11T02:14:41.924Z,19.30
2018-09-11T02:17:10.480Z,19.24
2018-09-11T02:19:39.058Z,19.15
2018-09-11T02:22:08.191Z,19.15
2018-09-11T02:24:36.828Z,19.11
2018-09-11T02:27:05.423Z,19.10
2018-09-11T02:29:34.087Z,19.06
2018-09-11T02:32:02.656Z,19.04
2018-09-11T02:34:31.203Z,19.00
2018-09-11T02:37:00.112Z,18.82
2018-09-11T02:39:29.355Z,18.76
2018-09-11T02:41:57.915Z,18.74
2018-09-11T02:44:26.499Z,18.73
2018-09-11T02:46:55.052Z,18.71
2018-09-11T02:49:23.608Z,18.81
2018-09-11T02:51:52.431Z,18.82
2018-09-11T02:54:20.984Z,18.79
2018-09-11T02:56:49.540Z,18.74
2018-09-11T02:59:18.268Z,18.79
2018-09-11T03:01:46.839Z,18.75
2018-09-11T03:04:17.536Z,18.67
2018-09-11T03:06:46.123Z,18.66
2018-09-11T03:09:14.675Z,18.65
2018-09-11T03:11:43.260Z,18.67
2018-09-11T03:14:12.268Z,18.69
2018-09-11T03:16:40.942Z,18.69
2018-09-11T03:19:09.527Z,18.71
2018-09-11T03:21:38.543Z,18.69
2018-09-11T03:24:07.212Z,18.63
2018-09-11T03:26:36.286Z,18.64
2018-09-11T03:29:05.800Z,18.59
2018-09-11T03:31:34.370Z,18.55
2018-09-11T03:34:03.040Z,18.53
2018-09-11T03:36:32.143Z,18.50
2018-09-11T03:39:00.700Z,18.47
2018-09-11T03:41:29.289Z,18.44
2018-09-11T03:43:57.847Z,18.45
2018-09-11T03:46:26.409Z,18.47
2018-09-11T03:48:55.063Z,18.49
2018-09-11T03:51:23.610Z,18.46
2018-09-11T03:53:52.174Z,18.44
2018-09-11T03:56:20.768Z,18.39
2018-09-11T03:58:49.324Z,18.39
2018-09-11T04:01:17.879Z,18.37
2018-09-11T04:03:46.599Z,18.38
2018-09-11T04:06:15.147Z,18.39
2018-09-11T04:08:43.704Z,18.38
2018-09-11T04:11:12.649Z,18.32
2018-09-11T04:13:41.211Z,18.25
2018-09-11T04:16:09.764Z,18.21
2018-09-11T04:18:38.340Z,18.17
2018-09-11T04:21:06.943Z,18.16
2018-09-11T04:23:35.490Z,18.16
2018-09-11T04:26:04.576Z,18.12
2018-09-11T04:28:33.407Z,18.14
2018-09-11T04:31:01.968Z,18.07
2018-09-11T04:33:30.826Z,18.02
2018-09-11T04:35:59.772Z,17.97
2018-09-11T04:38:28.403Z,17.94
2018-09-11T04:40:57.423Z,17.90
2018-09-11T04:43:25.982Z,17.90
2018-09-11T04:45:54.567Z,17.93
2018-09-11T04:48:23.166Z,17.95
2018-09-11T04:50:51.727Z,17.97
2018-09-11T04:53:20.305Z,17.99
2018-09-11T04:55:48.913Z,18.01
2018-09-11T04:58:17.465Z,18.01
2018-09-11T05:00:46.004Z,17.98
2018-09-11T05:03:14.923Z,17.98
2018-09-11T05:05:43.475Z,17.96
2018-09-11T05:08:12.031Z,17.97
2018-09-11T05:10:40.684Z,17.99
2018-09-11T05:13:09.525Z,18.01
2018-09-11T05:15:38.084Z,17.98
2018-09-11T05:18:06.970Z,17.92
2018-09-11T05:20:35.551Z,17.93
2018-09-11T05:23:04.159Z,17.92
2018-09-11T05:25:32.943Z,17.91
2018-09-11T05:28:01.489Z,17.90
2018-09-11T05:30:30.068Z,17.90
2018-09-11T05:32:58.739Z,17.93
2018-09-11T05:35:27.290Z,17.95
2018-09-11T05:37:55.846Z,18.02
2018-09-11T05:40:24.632Z,18.07
2018-09-11T05:42:53.183Z,18.16
2018-09-11T05:45:21.738Z,18.29
2018-09-11T05:47:50.466Z,18.40
2018-09-11T05:50:19.019Z,18.52
2018-09-11T05:52:47.587Z,18.66
2018-09-11T05:55:16.173Z,18.79
2018-09-11T05:57:44.732Z,18.95
2018-09-11T06:00:13.616Z,19.09
2018-09-11T06:02:42.284Z,19.25
2018-09-11T06:05:10.839Z,19.41
2018-09-11T06:07:39.472Z,19.66
2018-09-11T06:10:08.183Z,19.80
2018-09-11T06:12:36.728Z,19.98
2018-09-11T06:15:05.383Z,20.19
2018-09-11T06:17:33.979Z,20.35
2018-09-11T06:20:02.544Z,20.42
2018-09-11T06:22:31.099Z,20.54
2018-09-11T06:24:59.755Z,20.70
2018-09-11T06:27:28.327Z,20.88
2018-09-11T06:29:56.912Z,21.06
2018-09-11T06:32:25.715Z,21.37
2018-09-11T06:34:54.275Z,21.68
2018-09-11T06:37:22.838Z,21.95
2018-09-11T06:39:51.475Z,22.20
2018-09-11T06:42:20.031Z,22.46
2018-09-11T06:44:48.635Z,22.55
2018-09-11T06:47:17.280Z,22.79
2018-09-11T06:49:45.833Z,23.04
2018-09-11T06:52:14.392Z,23.32
2018-09-11T06:54:43.030Z,23.56
2018-09-11T06:57:11.601Z,23.80
2018-09-11T06:59:40.148Z,23.98
2018-09-11T07:02:09.052Z,24.29
2018-09-11T07:04:37.610Z,24.40
2018-09-11T07:07:06.179Z,24.61
2018-09-11T07:09:34.911Z,24.90
2018-09-11T07:12:03.490Z,25.08
2018-09-11T07:14:32.050Z,25.27
2018-09-11T07:17:00.983Z,25.37
2018-09-11T07:19:29.625Z,25.56
2018-09-11T07:21:58.312Z,25.53
2018-09-11T07:24:27.051Z,25.67
2018-09-11T07:26:55.672Z,25.63
2018-09-11T07:29:24.312Z,25.77
2018-09-11T07:31:52.955Z,25.84
2018-09-11T07:34:21.511Z,25.93
2018-09-11T07:36:50.364Z,26.25
2018-09-11T07:39:19.463Z,26.30
2018-09-11T07:41:48.064Z,26.50
2018-09-11T07:44:16.675Z,26.92
2018-09-11T07:46:45.316Z,27.31
2018-09-11T07:49:13.872Z,27.25
2018-09-11T07:51:42.424Z,27.11
2018-09-11T07:54:11.267Z,27.15
2018-09-11T07:56:39.808Z,27.30
2018-09-11T07:59:08.388Z,27.53
2018-09-11T08:01:36.963Z,27.58
2018-09-11T08:04:05.536Z,27.87
2018-09-11T08:06:34.080Z,28.11
2018-09-11T08:09:03.027Z,28.24
2018-09-11T08:11:31.591Z,28.65
2018-09-11T08:14:00.144Z,28.80
2018-09-11T08:16:28.854Z,28.81
2018-09-11T08:18:57.375Z,28.74
2018-09-11T08:21:25.924Z,28.57
2018-09-11T08:23:54.898Z,28.16
2018-09-11T08:26:23.440Z,27.81
2018-09-11T08:28:51.999Z,27.60
2018-09-11T08:31:20.699Z,27.58
2018-09-11T08:33:49.254Z,27.55
2018-09-11T08:36:17.799Z,27.59
2018-09-11T08:38:46.455Z,27.76
2018-09-11T08:41:15.015Z,27.76
2018-09-11T08:43:43.559Z,28.13
2018-09-11T08:46:12.255Z,28.08
2018-09-11T08:48:40.808Z,27.98
2018-09-11T08:51:11.508Z,27.90
2018-09-11T08:53:41.828Z,27.92
2018-09-11T08:56:10.791Z,28.01
2018-09-11T08:58:39.716Z,28.10
2018-09-11T09:01:08.590Z,28.51
2018-09-11T09:03:37.151Z,28.94
2018-09-11T09:06:05.823Z,29.21
2018-09-11T09:08:34.368Z,29.50
2018-09-11T09:11:02.913Z,29.97
2018-09-11T09:13:31.568Z,30.35
2018-09-11T09:16:00.116Z,30.67
2018-09-11T09:18:28.663Z,30.80
2018-09-11T09:20:57.263Z,31.22
2018-09-11T09:23:25.843Z,31.70
2018-09-11T09:25:54.384Z,31.79
2018-09-11T09:28:23.036Z,32.06
2018-09-11T09:30:51.763Z,32.50
2018-09-11T09:33:20.328Z,33.06
2018-09-11T09:35:48.916Z,33.46
2018-09-11T09:38:17.472Z,32.67
2018-09-11T09:40:46.039Z,33.18
2018-09-11T09:43:14.636Z,33.17
2018-09-11T09:45:43.200Z,33.83
2018-09-11T09:48:11.751Z,34.08
2018-09-11T09:50:40.717Z,34.27
2018-09-11T09:53:09.260Z,33.94
2018-09-11T09:55:37.794Z,34.59
2018-09-11T09:58:07.336Z,34.46
2018-09-11T10:00:41.155Z,34.57
2018-09-11T10:03:09.804Z,35.15
2018-09-11T10:05:38.387Z,35.31
2018-09-11T10:08:06.955Z,35.52
2018-09-11T10:10:35.616Z,35.97
2018-09-11T10:13:04.180Z,36.13
2018-09-11T10:15:32.729Z,36.38
2018-09-11T10:18:01.311Z,36.67
2018-09-11T10:20:29.873Z,37.04
2018-09-11T10:22:58.443Z,36.75
2018-09-11T10:25:27.027Z,37.08
2018-09-11T10:27:55.739Z,36.04
2018-09-11T10:30:24.723Z,35.79
2018-09-11T10:32:53.563Z,33.91
2018-09-11T10:35:22.156Z,32.48
2018-09-11T10:37:50.699Z,32.48
2018-09-11T10:40:19.320Z,33.60
2018-09-11T10:42:47.859Z,33.80
2018-09-11T10:45:16.491Z,34.61
2018-09-11T10:47:45.220Z,34.93
2018-09-11T10:50:13.773Z,34.92
2018-09-11T10:52:42.314Z,34.31
2018-09-11T10:55:10.941Z,34.22
2018-09-11T10:57:39.497Z,34.47
2018-09-11T11:00:08.080Z,34.27
2018-09-11T11:02:36.799Z,34.38
2018-09-11T11:05:05.363Z,34.59
2018-09-11T11:07:33.916Z,34.45
2018-09-11T11:10:02.756Z,33.85
2018-09-11T11:12:31.316Z,32.31
2018-09-11T11:15:06.648Z,31.67
2018-09-11T11:17:35.202Z,32.15
2018-09-11T11:20:03.755Z,33.06
2018-09-11T11:22:32.832Z,32.92
2018-09-11T11:25:01.415Z,34.79
2018-09-11T11:27:29.969Z,36.47
2018-09-11T11:29:58.786Z,37.96
2018-09-11T11:32:27.376Z,39.00
2018-09-11T11:34:55.947Z,39.77
2018-09-11T11:37:24.737Z,40.79
2018-09-11T11:39:53.195Z,41.45
2018-09-11T11:42:21.761Z,38.54
2018-09-11T11:44:50.412Z,36.19
2018-09-11T11:47:20.376Z,35.55
2018-09-11T11:49:50.112Z,35.32
2018-09-11T11:52:19.143Z,36.38
2018-09-11T11:54:47.795Z,38.61
2018-09-11T11:57:16.359Z,40.64
2018-09-11T11:59:44.896Z,40.98
2018-09-11T12:02:13.573Z,39.79
2018-09-11T12:04:42.248Z,37.83
2018-09-11T12:07:10.841Z,35.63
2018-09-11T12:09:39.411Z,34.88
2018-09-11T12:12:08.010Z,34.17
2018-09-11T12:14:36.559Z,33.48
2018-09-11T12:17:05.282Z,33.19
2018-09-11T12:19:34.036Z,32.92
2018-09-11T12:22:02.601Z,32.70
2018-09-11T12:24:31.143Z,32.30
2018-09-11T12:26:59.821Z,32.23
2018-09-11T12:29:28.373Z,32.17
2018-09-11T12:31:56.936Z,31.67
2018-09-11T12:34:25.756Z,31.57
2018-09-11T12:36:54.311Z,31.41
2018-09-11T12:39:22.871Z,31.43
2018-09-11T12:41:51.483Z,31.42
2018-09-11T12:44:20.034Z,31.30
2018-09-11T12:46:48.853Z,31.18
2018-09-11T12:49:17.455Z,30.74
2018-09-11T12:51:46.119Z,30.54
2018-09-11T12:54:14.712Z,30.45
2018-09-11T12:56:43.364Z,30.48
2018-09-11T12:59:12.020Z,30.56
2018-09-11T13:01:40.568Z,30.56
2018-09-11T13:04:09.651Z,30.60
2018-09-11T13:06:38.251Z,30.65
2018-09-11T13:09:08.042Z,30.57
2018-09-11T13:11:36.636Z,30.50
2018-09-11T13:14:05.682Z,30.55
2018-09-11T13:16:34.295Z,30.53
2018-09-11T13:19:02.981Z,30.49
2018-09-11T13:21:31.550Z,30.24
2018-09-11T13:24:00.091Z,30.08
2018-09-11T13:26:28.672Z,30.17
2018-09-11T13:28:58.132Z,30.37
2018-09-11T13:31:26.709Z,30.40
2018-09-11T13:33:55.418Z,30.48
2018-09-11T13:36:23.871Z,30.38
2018-09-11T13:38:52.500Z,30.32
2018-09-11T13:41:21.423Z,30.19
2018-09-11T13:43:50.352Z,29.97
2018-09-11T13:46:18.991Z,29.91
2018-09-11T13:48:47.538Z,29.99
2018-09-11T13:51:16.096Z,30.03
2018-09-11T13:53:44.719Z,29.81
2018-09-11T13:56:13.471Z,29.97
2018-09-11T13:58:41.988Z,30.15
2018-09-11T14:01:10.544Z,30.14
2018-09-11T14:03:39.506Z,30.00
2018-09-11T14:06:08.060Z,30.07
2018-09-11T14:08:36.616Z,30.04
2018-09-11T14:11:05.331Z,30.07
2018-09-11T14:13:33.903Z,30.07
2018-09-11T14:16:02.572Z,30.06
2018-09-11T14:18:31.183Z,30.03
2018-09-11T14:20:59.783Z,30.03
2018-09-11T14:23:28.346Z,30.09
2018-09-11T14:25:57.274Z,30.16
2018-09-11T14:28:25.831Z,30.22
2018-09-11T14:30:54.395Z,30.21
2018-09-11T14:33:23.223Z,30.19
2018-09-11T14:35:51.823Z,30.11
2018-09-11T14:38:20.380Z,30.09
2018-09-11T14:40:49.067Z,29.96
2018-09-11T14:43:17.627Z,29.79
2018-09-11T14:45:46.201Z,29.84
2018-09-11T14:48:14.986Z,29.86
2018-09-11T14:50:43.617Z,29.81
2018-09-11T14:53:12.173Z,29.71
2018-09-11T14:55:40.883Z,29.70
2018-09-11T14:58:09.428Z,29.67
2018-09-11T15:00:38.014Z,29.65
2018-09-11T15:03:07.192Z,29.58
2018-09-11T15:05:35.764Z,29.61
2018-09-11T15:08:04.312Z,29.55
2018-09-11T15:10:33.044Z,29.58
2018-09-11T15:13:01.639Z,29.56
2018-09-11T15:15:30.191Z,29.61
2018-09-11T15:17:58.888Z,29.57
2018-09-11T15:20:27.471Z,29.51
2018-09-11T15:22:56.011Z,29.52
2018-09-11T15:25:24.611Z,29.46
2018-09-11T15:27:53.172Z,29.53
2018-09-11T15:30:21.731Z,29.57
2018-09-11T15:32:50.575Z,29.57
2018-09-11T15:35:19.155Z,29.63
2018-09-11T15:37:47.703Z,29.54
2018-09-11T15:40:16.418Z,29.55
2018-09-11T15:42:44.955Z,29.51
2018-09-11T15:45:13.511Z,29.43
2018-09-11T15:47:42.079Z,29.39
2018-09-11T15:50:10.633Z,29.38
2018-09-11T15:52:39.196Z,29.39
2018-09-11T15:55:07.891Z,29.39
2018-09-11T15:57:36.459Z,29.31
2018-09-11T16:00:05.048Z,29.32
2018-09-11T16:02:33.627Z,29.26
2018-09-11T16:05:02.189Z,29.25
2018-09-11T16:07:30.732Z,29.25
2018-09-11T16:09:59.334Z,29.29
2018-09-11T16:12:27.877Z,29.28
2018-09-11T16:14:56.462Z,29.26
2018-09-11T16:17:25.028Z,29.19
2018-09-11T16:19:53.588Z,29.17
2018-09-11T16:22:22.140Z,29.18
2018-09-11T16:24:51.412Z,29.12
2018-09-11T16:27:19.960Z,29.06
2018-09-11T16:29:48.575Z,29.10
2018-09-11T16:32:17.104Z,29.07
2018-09-11T16:34:45.675Z,29.06
2018-09-11T16:37:14.240Z,29.00
2018-09-11T16:39:43.852Z,28.92
2018-09-11T16:42:12.412Z,28.87
2018-09-11T16:44:40.960Z,28.86
2018-09-11T16:47:09.894Z,28.78
2018-09-11T16:49:44.815Z,28.70
2018-09-11T16:52:13.412Z,28.70
2018-09-11T16:54:42.045Z,28.61
2018-09-11T16:57:10.604Z,28.57
2018-09-11T16:59:39.276Z,28.49
2018-09-11T17:02:08.024Z,28.44
2018-09-11T17:04:37.004Z,28.44
2018-09-11T17:07:05.828Z,28.39
2018-09-11T17:09:34.383Z,28.33
2018-09-11T17:12:02.927Z,28.33
2018-09-11T17:14:31.503Z,28.16
2018-09-11T17:17:00.096Z,28.17
2018-09-11T17:19:28.660Z,28.20
2018-09-11T17:21:57.295Z,28.08
2018-09-11T17:24:25.847Z,27.91
2018-09-11T17:26:54.435Z,27.76
2018-09-11T17:29:23.132Z,27.73
2018-09-11T17:31:51.680Z,27.71
2018-09-11T17:34:20.309Z,27.65
2018-09-11T17:36:49.017Z,27.62
2018-09-11T17:39:17.596Z,27.59
2018-09-11T17:41:46.143Z,27.54
2018-09-11T17:44:14.727Z,27.49
2018-09-11T17:46:43.702Z,27.46
2018-09-11T17:49:12.331Z,27.39
2018-09-11T17:51:40.903Z,27.31
2018-09-11T17:54:09.489Z,27.22
2018-09-11T17:56:38.108Z,27.14
2018-09-11T17:59:07.085Z,27.02
2018-09-11T18:01:35.651Z,26.98
2018-09-11T18:04:04.232Z,26.81
2018-09-11T18:06:32.919Z,26.75
2018-09-11T18:09:01.484Z,26.67
2018-09-11T18:11:30.045Z,26.57
2018-09-11T18:13:58.736Z,26.54
2018-09-11T18:16:27.299Z,26.47
2018-09-11T18:18:55.864Z,26.37
2018-09-11T18:21:24.531Z,26.38
2018-09-11T18:23:53.188Z,26.28
2018-09-11T18:26:21.760Z,26.15
2018-09-11T18:28:50.494Z,26.08
2018-09-11T18:31:19.076Z,26.01
2018-09-11T18:33:47.782Z,25.97
2018-09-11T18:36:16.532Z,25.82
2018-09-11T18:38:45.111Z,25.73
2018-09-11T18:41:14.167Z,25.67
2018-09-11T18:43:42.951Z,25.61
2018-09-11T18:46:11.512Z,25.47
2018-09-11T18:48:40.072Z,25.37
2018-09-11T18:51:08.672Z,25.34
2018-09-11T18:53:37.239Z,25.28
2018-09-11T18:56:05.795Z,25.19
2018-09-11T18:58:34.455Z,25.14
2018-09-11T19:01:03.028Z,25.12
2018-09-11T19:03:31.575Z,25.09
2018-09-11T19:06:00.255Z,25.02
2018-09-11T19:08:28.808Z,24.94
2018-09-11T19:10:57.378Z,24.91
2018-09-11T19:13:26.067Z,24.83
2018-09-11T19:15:54.683Z,24.84
2018-09-11T19:18:23.323Z,24.70
2018-09-11T19:20:51.999Z,24.62
2018-09-11T19:23:20.564Z,24.64
2018-09-11T19:25:49.136Z,24.58
2018-09-11T19:28:17.817Z,24.53
2018-09-11T19:30:46.376Z,24.53
2018-09-11T19:33:14.940Z,24.54
2018-09-11T19:35:43.691Z,24.49
2018-09-11T19:38:12.244Z,24.42
2018-09-11T19:40:40.813Z,24.37
2018-09-11T19:43:09.399Z,24.30
2018-09-11T19:45:37.980Z,24.25
2018-09-11T19:48:06.699Z,24.18
2018-09-11T19:50:35.420Z,24.12
2018-09-11T19:53:03.972Z,24.08
2018-09-11T19:55:32.520Z,24.04
2018-09-11T19:58:01.188Z,23.97
2018-09-11T20:00:29.744Z,23.89
2018-09-11T20:02:58.307Z,23.84
2018-09-11T20:05:26.971Z,23.78
2018-09-11T20:07:55.614Z,23.73
2018-09-11T20:10:24.182Z,23.71
2018-09-11T20:12:52.822Z,23.64
2018-09-11T20:15:21.390Z,23.62
2018-09-11T20:17:49.968Z,23.58
2018-09-11T20:20:18.552Z,23.51
2018-09-11T20:22:47.103Z,23.45
2018-09-11T20:25:15.814Z,23.36
2018-09-11T20:27:44.443Z,23.31
2018-09-11T20:30:13.032Z,23.24
2018-09-11T20:32:41.667Z,23.14
2018-09-11T20:35:10.524Z,23.07
2018-09-11T20:37:39.171Z,23.04
2018-09-11T20:40:07.772Z,22.98
2018-09-11T20:42:36.823Z,22.94
2018-09-11T20:45:05.442Z,22.85
2018-09-11T20:47:34.019Z,22.73
2018-09-11T20:50:02.876Z,22.59
2018-09-11T20:52:31.450Z,22.53
2018-09-11T20:55:00.008Z,22.45
2018-09-11T20:57:28.579Z,22.40
2018-09-11T20:59:57.131Z,22.38
2018-09-11T21:02:25.690Z,22.37
2018-09-11T21:04:54.371Z,22.36
2018-09-11T21:07:22.935Z,22.39
2018-09-11T21:09:51.486Z,22.37
2018-09-11T21:12:20.339Z,22.35
2018-09-11T21:14:48.909Z,22.27
2018-09-11T21:17:17.465Z,22.17
2018-09-11T21:19:46.166Z,22.06
2018-09-11T21:22:14.723Z,21.99
2018-09-11T21:24:43.279Z,21.93
2018-09-11T21:27:11.953Z,21.86
2018-09-11T21:29:40.508Z,21.86
2018-09-11T21:32:09.064Z,21.82
2018-09-11T21:34:38.022Z,21.71
2018-09-11T21:37:06.748Z,21.61
2018-09-11T21:39:35.289Z,21.57
2018-09-11T21:42:04.271Z,21.51
2018-09-11T21:44:32.851Z,21.50
2018-09-11T21:47:01.395Z,21.46
2018-09-11T21:49:30.036Z,21.40
2018-09-11T21:54:32.832Z,21.36
2018-09-11T21:57:01.395Z,21.38
2018-09-11T21:59:29.963Z,21.34
2018-09-11T22:02:02.288Z,21.32
2018-09-11T22:04:31.503Z,21.25
2018-09-11T22:07:00.051Z,21.16
2018-09-11T22:09:28.931Z,21.11
2018-09-11T22:11:57.547Z,21.03
2018-09-11T22:14:26.055Z,20.97
2018-09-11T22:16:54.741Z,20.94
2018-09-11T22:19:23.291Z,20.90
2018-09-11T22:21:51.874Z,20.86
2018-09-11T22:24:20.480Z,20.85
2018-09-11T22:26:49.028Z,20.84
2018-09-11T22:29:17.575Z,20.79
2018-09-11T22:31:46.247Z,20.73
2018-09-11T22:34:14.792Z,20.62
2018-09-11T22:36:43.391Z,20.53
2018-09-11T22:39:12.355Z,20.46
2018-09-11T22:41:40.972Z,20.34
2018-09-11T22:44:09.476Z,20.30
2018-09-11T22:46:38.191Z,20.26
2018-09-11T22:49:06.756Z,20.26
2018-09-11T22:51:35.308Z,20.23
2018-09-11T22:54:04.005Z,20.22
2018-09-11T22:56:32.546Z,20.20
2018-09-11T22:59:01.095Z,20.22
2018-09-11T23:01:29.824Z,20.17
2018-09-11T23:03:58.368Z,20.14
2018-09-11T23:06:26.920Z,20.09
2018-09-11T23:08:55.585Z,20.06
2018-09-11T23:11:24.123Z,20.05
2018-09-11T23:13:52.752Z,19.97
2018-09-11T23:16:21.767Z,19.94
2018-09-11T23:18:50.330Z,19.91
2018-09-11T23:21:18.891Z,19.91
2018-09-11T23:23:47.553Z,19.86
2018-09-11T23:26:16.175Z,19.83
2018-09-11T23:28:44.736Z,19.76
2018-09-11T23:31:13.395Z,19.69
2018-09-11T23:33:41.979Z,19.68
2018-09-11T23:36:10.552Z,19.65
2018-09-11T23:38:39.164Z,19.64
2018-09-11T23:41:08.026Z,19.60
2018-09-11T23:43:36.587Z,19.56
2018-09-11T23:46:05.463Z,19.56
2018-09-11T23:48:34.014Z,19.56
2018-09-11T23:51:02.563Z,19.55
2018-09-11T23:53:31.152Z,19.55
2018-09-11T23:55:59.745Z,19.54
2018-09-11T23:58:28.304Z,19.52
